Cane Creek, Arkansas
Current Conditions -  °F | °C
As of 3:00 AM on Sunday 26 Oct 2014 (Local Time) from KPBF Reporting Station
Haze Haze  
Wind Chill: 60°   Ceiling: 500
Heat Index: 60°   Visibility: 0.75mi
Dew Point: 59°   Wind: 0mph
Humidity: 96%   Direction: NA
Pressure: 30.02"   Gusts: NA
Location:  34.3151°N, 92.3357°W
Report Text: KPBF 260800Z AUTO 00000KT 3/4SM BR VV005 16/15 A3002 RMK AO2 T01560150
Loading
Personal Weather Stations






























Interactive Weather Map
Tropical Storm Tracking
New forecast layout! Learn more

10-Day Weather Forecast

Advertisements
Track Severe Weather on mobile